»·PEaware :: AAL424 KLAX-KAMA

AAL424 :: KLAX-KAMA

FLIGHT INFORMATION

Flight Status: Arrived
Operator:
American Airlines
More flights by this operator :: More flights under this callsign
Pilot: Ben H. (9170)
Aircraft: AIRBUS A320
(A320)
More flights by this aircraft type
Origin: KLAX Los Angeles Intl
United States
Destination: KAMA Amarillo Intl
United States
More flights between these airports :: More routes between these airports
Route: +DOTTS2 CLEEE WURMO SJN J18 ABQ ACH PNH
File this flight plan on PilotEdge
Remarks:
Altitude:
(Current/Filed)
33,000ft
Speed:
(Current/Filed)
463kts
Departed: 26-Aug-17 08:30 AM
Arrived: 26-Aug-17 10:38 AM
Distance/Time
Traveled:
828nm/2:08
Distance/Time
To Go:
Arrived

Flight Plot

Page will automatically refresh every two minutes.

Flight plan parsing failed; only flown route is shown


Map Options




Map Legend


Flown Route
Filed Route
Departure Airport
Arrival Airport
Navaid (VOR, NDB)
Fix

Horizontal Profiles

Position Reports

Time Latitude Longitude Heading Altitude Ground
Speed
26-Aug-17 07:50 33.940466 -118.406186 279 133ft 0kts
26-Aug-17 07:51 33.940466 -118.406186 279 133ft 0kts
26-Aug-17 07:52 33.940466 -118.406186 279 133ft 0kts
26-Aug-17 07:53 33.940466 -118.406186 279 133ft 0kts
26-Aug-17 07:54 33.940466 -118.406186 279 133ft 0kts
26-Aug-17 07:55 33.940466 -118.406186 279 133ft 0kts
26-Aug-17 07:56 33.940466 -118.406186 279 133ft 0kts
26-Aug-17 07:57 33.940466 -118.406186 279 133ft 0kts
26-Aug-17 07:58 33.940466 -118.406186 279 133ft 0kts
26-Aug-17 07:59 33.940466 -118.406186 279 133ft 0kts
26-Aug-17 08:00 33.940466 -118.406186 279 133ft 0kts
26-Aug-17 08:01 33.940466 -118.406186 279 133ft 0kts
26-Aug-17 08:02 33.940466 -118.406186 279 133ft 0kts
26-Aug-17 08:03 33.940466 -118.406186 279 133ft 0kts
26-Aug-17 08:04 33.940466 -118.406186 279 133ft 0kts
26-Aug-17 08:05 33.940466 -118.406186 279 133ft 0kts
26-Aug-17 08:06 33.940466 -118.406186 279 133ft 0kts
26-Aug-17 08:07 33.940466 -118.406186 279 133ft 0kts
26-Aug-17 08:08 33.940466 -118.406186 279 133ft 0kts
26-Aug-17 08:09 33.940466 -118.406186 279 133ft 0kts
26-Aug-17 08:10 33.940466 -118.406186 279 133ft 0kts
26-Aug-17 08:11 33.940466 -118.406186 279 133ft 0kts
26-Aug-17 08:12 33.940466 -118.406186 279 133ft 0kts
26-Aug-17 08:13 33.940466 -118.406186 279 133ft 0kts
26-Aug-17 08:14 33.940466 -118.406186 279 133ft 0kts
26-Aug-17 08:15 33.940466 -118.406186 279 133ft 0kts
26-Aug-17 08:16 33.940454 -118.406094 279 133ft 0kts
26-Aug-17 08:17 33.940494 -118.405423 215 133ft 0kts
26-Aug-17 08:18 33.940494 -118.405423 215 133ft 0kts
26-Aug-17 08:19 33.940494 -118.405423 215 133ft 0kts
26-Aug-17 08:20 33.940112 -118.405470 174 133ft 4kts
26-Aug-17 08:21 33.940100 -118.405469 174 133ft 0kts
26-Aug-17 08:22 33.940100 -118.405469 174 133ft 0kts
26-Aug-17 08:23 33.940100 -118.405469 174 133ft 0kts
26-Aug-17 08:24 33.940100 -118.405469 174 133ft 0kts
26-Aug-17 08:25 33.940100 -118.405469 174 133ft 0kts
26-Aug-17 08:26 33.939325 -118.405370 174 133ft 11kts
26-Aug-17 08:27 33.938490 -118.402814 83 133ft 12kts
26-Aug-17 08:28 33.939021 -118.397668 83 133ft 18kts
26-Aug-17 08:29 33.939723 -118.390604 84 133ft 20kts
26-Aug-17 08:30 33.940359 -118.384418 83 133ft 19kts
26-Aug-17 08:31 33.940709 -118.380728 103 133ft 0kts
26-Aug-17 08:32 33.940709 -118.380728 103 133ft 0kts
26-Aug-17 08:33 33.939745 -118.381031 262 133ft 15kts
26-Aug-17 08:34 33.936382 -118.416489 263 732ft 161kts
26-Aug-17 08:35 33.923383 -118.470975 229 2245ft 211kts
26-Aug-17 08:36 33.883908 -118.528480 229 4497ft 260kts
26-Aug-17 08:37 33.821036 -118.551606 168 7686ft 269kts
26-Aug-17 08:38 33.747189 -118.533824 167 10302ft 299kts
26-Aug-17 08:39 33.680483 -118.464113 108 11359ft 381kts
26-Aug-17 08:40 33.647493 -118.350274 103 14178ft 393kts
26-Aug-17 08:41 33.644716 -118.216537 90 16713ft 411kts
26-Aug-17 08:42 33.644625 -118.080013 90 16944ft 415kts
26-Aug-17 08:43 33.644442 -117.941807 90 16988ft 422kts
26-Aug-17 08:44 33.644711 -117.800377 85 19505ft 431kts
26-Aug-17 08:45 33.670347 -117.659365 77 21602ft 444kts
26-Aug-17 08:46 33.698448 -117.512504 77 23455ft 457kts
26-Aug-17 08:47 33.726957 -117.362769 77 25106ft 469kts
26-Aug-17 08:48 33.750506 -117.210953 91 27100ft 465kts
26-Aug-17 08:49 33.747748 -117.057035 92 28946ft 462kts
26-Aug-17 08:50 33.744290 -116.904453 92 30546ft 459kts
26-Aug-17 08:51 33.740896 -116.753501 92 31943ft 457kts
26-Aug-17 08:52 33.737312 -116.601996 92 32951ft 454kts
26-Aug-17 08:53 33.733569 -116.451751 92 32946ft 454kts
26-Aug-17 08:54 33.729639 -116.300915 93 32860ft 455kts
26-Aug-17 08:55 33.725733 -116.157528 93 32862ft 456kts
26-Aug-17 08:56 33.747759 -116.013830 66 32859ft 461kts
26-Aug-17 08:57 33.800777 -115.875039 66 32859ft 461kts
26-Aug-17 08:58 33.854649 -115.736231 66 33104ft 461kts
26-Aug-17 08:59 33.908487 -115.597016 66 33102ft 461kts
26-Aug-17 09:00 33.962078 -115.457861 66 33103ft 461kts
26-Aug-17 09:01 34.011749 -115.328343 66 33064ft 462kts
26-Aug-17 09:02 34.064780 -115.189420 66 32970ft 462kts
26-Aug-17 09:03 34.117211 -115.051807 66 32940ft 462kts
26-Aug-17 09:04 34.169769 -114.913247 66 32940ft 462kts
26-Aug-17 09:05 34.222355 -114.773856 66 32941ft 462kts
26-Aug-17 09:06 34.256046 -114.628129 86 32939ft 458kts
26-Aug-17 09:07 34.264938 -114.475116 87 32939ft 458kts
26-Aug-17 09:08 34.272323 -114.330886 88 32942ft 458kts
26-Aug-17 09:09 34.279505 -114.186667 88 32941ft 458kts
26-Aug-17 09:10 34.286927 -114.034006 88 32941ft 458kts
26-Aug-17 09:11 34.294154 -113.881457 88 32940ft 458kts
26-Aug-17 09:12 34.301218 -113.728328 88 32941ft 458kts
26-Aug-17 09:13 34.308064 -113.575758 88 32942ft 458kts
26-Aug-17 09:14 34.314730 -113.422983 88 32942ft 458kts
26-Aug-17 09:15 34.321092 -113.272822 88 33143ft 458kts
26-Aug-17 09:16 34.327380 -113.119999 88 33264ft 458kts
26-Aug-17 09:17 34.333465 -112.967498 88 33266ft 458kts
26-Aug-17 09:18 34.339342 -112.815482 89 33266ft 458kts
26-Aug-17 09:19 34.345052 -112.662889 89 33266ft 458kts
26-Aug-17 09:20 34.350563 -112.510547 89 33265ft 458kts
26-Aug-17 09:21 34.355970 -112.357698 89 33267ft 464kts
26-Aug-17 09:22 34.360010 -112.234983 88 33263ft 457kts
26-Aug-17 09:23 34.365073 -112.081148 88 33266ft 461kts
26-Aug-17 09:24 34.369903 -111.927461 88 33266ft 462kts
26-Aug-17 09:25 34.374555 -111.773226 88 33266ft 462kts
26-Aug-17 09:26 34.379708 -111.594109 88 33287ft 464kts
26-Aug-17 09:27 34.383275 -111.464934 88 33294ft 461kts
26-Aug-17 09:28 34.387328 -111.311463 89 33291ft 462kts
26-Aug-17 09:29 34.391152 -111.159285 89 33292ft 462kts
26-Aug-17 09:30 34.394850 -111.004599 89 33292ft 462kts
26-Aug-17 09:31 34.398348 -110.850080 89 33293ft 462kts
26-Aug-17 09:32 34.401655 -110.695442 89 33266ft 463kts
26-Aug-17 09:33 34.404754 -110.541506 89 33360ft 462kts
26-Aug-17 09:34 34.407672 -110.386904 89 33374ft 462kts
26-Aug-17 09:35 34.410370 -110.233667 89 33373ft 463kts
26-Aug-17 09:36 34.412889 -110.079783 89 33373ft 463kts
26-Aug-17 09:37 34.415230 -109.924899 89 33296ft 463kts
26-Aug-17 09:38 34.417382 -109.769844 90 33287ft 464kts
26-Aug-17 09:39 34.419345 -109.612357 89 33302ft 474kts
26-Aug-17 09:40 34.421155 -109.453072 89 33296ft 475kts
26-Aug-17 09:41 34.422725 -109.296696 89 33292ft 476kts
26-Aug-17 09:42 34.426519 -109.138043 77 33289ft 476kts
26-Aug-17 09:43 34.467594 -108.986506 71 33291ft 475kts
26-Aug-17 09:44 34.508872 -108.836575 71 33294ft 475kts
26-Aug-17 09:45 34.550186 -108.685809 71 33293ft 475kts
26-Aug-17 09:46 34.591165 -108.535444 71 33408ft 474kts
26-Aug-17 09:47 34.631992 -108.384819 71 33402ft 474kts
26-Aug-17 09:48 34.671309 -108.238845 71 33399ft 475kts
26-Aug-17 09:49 34.711670 -108.088290 71 33400ft 475kts
26-Aug-17 09:50 34.752282 -107.936041 71 33378ft 472kts
26-Aug-17 09:51 34.792106 -107.785742 71 33371ft 477kts
26-Aug-17 09:52 34.831870 -107.634907 71 33373ft 476kts
26-Aug-17 09:53 34.871618 -107.483270 71 33375ft 475kts
26-Aug-17 09:54 34.910901 -107.332550 72 33354ft 475kts
26-Aug-17 09:55 34.950282 -107.180462 72 33347ft 476kts
26-Aug-17 09:56 34.989621 -107.027765 72 33346ft 476kts
26-Aug-17 09:57 35.027067 -106.881608 72 33346ft 476kts
26-Aug-17 09:58 35.047527 -106.724544 86 33330ft 476kts
26-Aug-17 09:59 35.054890 -106.565286 86 33321ft 477kts
26-Aug-17 10:00 35.061724 -106.405838 86 33320ft 477kts
26-Aug-17 10:01 35.068300 -106.247283 87 33374ft 477kts
26-Aug-17 10:02 35.074770 -106.086401 87 33372ft 477kts
26-Aug-17 10:03 35.080933 -105.927843 87 33420ft 478kts
26-Aug-17 10:04 35.086930 -105.768227 87 33430ft 477kts
26-Aug-17 10:05 35.092763 -105.607255 87 33429ft 478kts
26-Aug-17 10:06 35.098343 -105.447477 87 33428ft 478kts
26-Aug-17 10:07 35.103823 -105.288302 87 33429ft 478kts
26-Aug-17 10:08 35.109007 -105.127986 87 33403ft 479kts
26-Aug-17 10:09 35.114813 -104.967922 87 33405ft 479kts
26-Aug-17 10:10 35.121357 -104.807802 87 33183ft 483kts
26-Aug-17 10:11 35.127762 -104.646626 87 32238ft 480kts
26-Aug-17 10:12 35.133929 -104.486092 87 30616ft 478kts
26-Aug-17 10:13 35.139805 -104.326915 87 28613ft 480kts
26-Aug-17 10:14 35.145492 -104.167675 87 27649ft 472kts
26-Aug-17 10:15 35.150906 -104.010484 87 26680ft 465kts
26-Aug-17 10:16 35.156018 -103.856359 87 25717ft 457kts
26-Aug-17 10:17 35.161160 -103.704495 86 24756ft 450kts
26-Aug-17 10:18 35.166785 -103.554365 86 23793ft 442kts
26-Aug-17 10:19 35.172152 -103.406947 86 22833ft 435kts
26-Aug-17 10:20 35.177504 -103.265372 86 21888ft 427kts
26-Aug-17 10:21 35.183136 -103.123809 85 20921ft 419kts
26-Aug-17 10:22 35.188534 -102.984482 85 19954ft 411kts
26-Aug-17 10:23 35.193706 -102.846997 85 18983ft 405kts
26-Aug-17 10:24 35.198609 -102.712621 85 17346ft 396kts
26-Aug-17 10:25 35.203540 -102.573003 85 16999ft 425kts
26-Aug-17 10:26 35.208384 -102.431183 85 17001ft 425kts
26-Aug-17 10:27 35.213343 -102.289310 86 16975ft 425kts
26-Aug-17 10:28 35.218644 -102.146432 86 16974ft 425kts
26-Aug-17 10:29 35.224536 -102.013802 76 16055ft 382kts
26-Aug-17 10:30 35.285443 -101.916121 45 13980ft 369kts
26-Aug-17 10:31 35.353627 -101.827000 45 12029ft 359kts
26-Aug-17 10:32 35.419508 -101.740489 45 10115ft 352kts
26-Aug-17 10:33 35.479593 -101.661451 60 9893ft 299kts
26-Aug-17 10:34 35.459696 -101.580603 125 9741ft 244kts
26-Aug-17 10:35 35.421735 -101.528439 171 9679ft 182kts
26-Aug-17 10:36 35.371095 -101.546555 195 8233ft 194kts
26-Aug-17 10:37 35.322920 -101.565188 195 7313ft 175kts
26-Aug-17 10:38 35.277256 -101.582064 195 6218ft 174kts
26-Aug-17 10:39 35.257567 -101.633550 279 4914ft 169kts
26-Aug-17 10:40 35.245007 -101.682600 219 4246ft 160kts
26-Aug-17 10:41 35.219126 -101.715079 225 3614ft 66kts
26-Aug-17 10:42 35.212736 -101.721148 134 3614ft 0kts
26-Aug-17 10:43 35.212726 -101.721136 135 3614ft 0kts
26-Aug-17 10:44 35.211637 -101.719801 121 3614ft 10kts
26-Aug-17 10:45 35.214308 -101.715865 45 3614ft 21kts
26-Aug-17 10:46 35.217847 -101.710409 119 3614ft 18kts
26-Aug-17 10:47 35.218848 -101.706814 106 3614ft 2kts
26-Aug-17 10:48 35.218832 -101.706750 106 3614ft 0kts
26-Aug-17 10:49 35.218832 -101.706750 106 3614ft 0kts
26-Aug-17 10:50 35.218832 -101.706750 106 3614ft 0kts
26-Aug-17 10:51 35.218832 -101.706750 106 3614ft 0kts
26-Aug-17 10:52 35.218832 -101.706750 106 3614ft 0kts

Navigation Log

Ident Type
Flight plan parsing failed, navigation log unavailable